createdAt,value
2017-09-17T00:00:15.192Z,100812.77
2017-09-17T00:02:49.977Z,100808.85
2017-09-17T00:05:25.614Z,100805.18
2017-09-17T00:08:00.851Z,100802.33
2017-09-17T00:10:35.794Z,100804.36
2017-09-17T00:13:10.941Z,100803.34
2017-09-17T00:15:45.914Z,100810.82
2017-09-17T00:18:20.814Z,100814.30
2017-09-17T00:20:55.837Z,100802.45
2017-09-17T00:23:30.623Z,100805.58
2017-09-17T00:26:06.549Z,100809.03
2017-09-17T00:28:41.363Z,100815.17
2017-09-17T00:31:16.447Z,100804.71
2017-09-17T00:33:51.484Z,100800.49
2017-09-17T00:36:26.275Z,100807.55
2017-09-17T00:39:01.222Z,100795.59
2017-09-17T00:41:35.851Z,100800.73
2017-09-17T00:44:10.319Z,100801.45
2017-09-17T00:46:45.545Z,100800.34
2017-09-17T00:49:20.668Z,100793.31
2017-09-17T00:51:54.924Z,100793.14
2017-09-17T00:54:29.755Z,100789.55
2017-09-17T00:57:04.894Z,100800.75
2017-09-17T00:59:39.603Z,100805.00
2017-09-17T01:02:14.008Z,100808.95
2017-09-17T01:04:49.359Z,100814.06
2017-09-17T01:07:24.416Z,100803.20
2017-09-17T01:09:58.571Z,100800.51
2017-09-17T01:12:33.750Z,100803.00
2017-09-17T01:15:08.323Z,100816.87
2017-09-17T01:17:43.360Z,100814.19
2017-09-17T01:20:18.156Z,100815.91
2017-09-17T01:22:53.129Z,100815.36
2017-09-17T01:25:28.036Z,100813.81
2017-09-17T01:28:03.789Z,100809.34
2017-09-17T01:30:38.787Z,100815.36
2017-09-17T01:33:13.851Z,100815.48
2017-09-17T01:35:48.740Z,100819.95
2017-09-17T01:38:23.680Z,100821.23
2017-09-17T01:40:58.692Z,100810.60
2017-09-17T01:43:33.887Z,100811.89
2017-09-17T01:46:08.786Z,100817.31
2017-09-17T01:48:43.892Z,100816.32
2017-09-17T01:51:18.743Z,100818.98
2017-09-17T01:53:53.476Z,100810.37
2017-09-17T01:56:28.389Z,100808.94
2017-09-17T01:59:03.249Z,100814.63
2017-09-17T02:01:38.227Z,100811.45
2017-09-17T02:04:13.031Z,100808.83
2017-09-17T02:06:47.855Z,100810.16
2017-09-17T02:09:22.964Z,100807.16
2017-09-17T02:11:57.723Z,100806.58
2017-09-17T02:14:32.472Z,100808.97
2017-09-17T02:17:07.355Z,100814.78
2017-09-17T02:19:42.277Z,100814.23
2017-09-17T02:22:17.104Z,100818.67
2017-09-17T02:24:51.895Z,100825.36
2017-09-17T02:27:26.935Z,100824.54
2017-09-17T02:30:02.040Z,100827.93
2017-09-17T02:32:36.839Z,100829.71
2017-09-17T02:35:11.829Z,100826.14
2017-09-17T02:37:46.698Z,100821.80
2017-09-17T02:40:21.389Z,100826.21
2017-09-17T02:42:56.484Z,100827.76
2017-09-17T02:45:30.971Z,100820.03
2017-09-17T02:48:05.754Z,100820.79
2017-09-17T02:50:40.927Z,100815.54
2017-09-17T02:53:15.715Z,100816.82
2017-09-17T02:55:50.505Z,100824.23
2017-09-17T02:58:25.507Z,100815.68
2017-09-17T03:01:00.540Z,100821.05
2017-09-17T03:03:35.426Z,100822.71
2017-09-17T03:06:10.540Z,100826.05
2017-09-17T03:08:45.167Z,100814.02
2017-09-17T03:11:20.372Z,100819.56
2017-09-17T03:13:55.283Z,100820.67
2017-09-17T03:16:29.992Z,100813.63
2017-09-17T03:19:05.028Z,100816.05
2017-09-17T03:21:39.836Z,100812.91
2017-09-17T03:24:14.603Z,100811.12
2017-09-17T03:26:49.296Z,100817.91
2017-09-17T03:29:24.313Z,100820.03
2017-09-17T03:31:59.424Z,100822.40
2017-09-17T03:34:34.323Z,100817.28
2017-09-17T03:37:09.290Z,100819.39
2017-09-17T03:39:44.104Z,100823.59
2017-09-17T03:42:24.347Z,100826.98
2017-09-17T03:44:58.971Z,100826.05
2017-09-17T03:47:33.776Z,100831.65
2017-09-17T03:50:08.815Z,100829.69
2017-09-17T03:52:43.871Z,100829.61
2017-09-17T03:55:18.695Z,100832.06
2017-09-17T03:57:53.598Z,100829.38
2017-09-17T04:00:28.431Z,100823.27
2017-09-17T04:03:03.257Z,100827.88
2017-09-17T04:05:38.303Z,100826.09
2017-09-17T04:08:13.081Z,100825.70
2017-09-17T04:10:47.792Z,100823.09
2017-09-17T04:13:22.747Z,100822.25
2017-09-17T04:15:57.739Z,100824.30
2017-09-17T04:18:32.679Z,100830.95
2017-09-17T04:21:07.394Z,100835.71
2017-09-17T04:23:42.465Z,100838.13
2017-09-17T04:26:17.512Z,100832.38
2017-09-17T04:28:52.234Z,100831.38
2017-09-17T04:31:27.549Z,100835.15
2017-09-17T04:34:02.495Z,100840.35
2017-09-17T04:36:37.335Z,100841.70
2017-09-17T04:39:12.125Z,100839.22
2017-09-17T04:41:47.164Z,100842.93
2017-09-17T04:44:22.043Z,100846.58
2017-09-17T04:46:57.260Z,100845.53
2017-09-17T04:49:32.080Z,100849.88
2017-09-17T04:52:06.871Z,100861.68
2017-09-17T04:54:41.883Z,100856.67
2017-09-17T04:57:16.751Z,100853.92
2017-09-17T04:59:51.599Z,100858.77
2017-09-17T05:02:26.432Z,100860.11
2017-09-17T05:05:01.768Z,100861.13
2017-09-17T05:07:36.771Z,100862.45
2017-09-17T05:10:12.095Z,100861.03
2017-09-17T05:12:46.897Z,100870.80
2017-09-17T05:15:22.318Z,100866.69
2017-09-17T05:17:57.083Z,100872.16
2017-09-17T05:20:32.131Z,100875.03
2017-09-17T05:23:07.184Z,100871.61
2017-09-17T05:25:41.943Z,100873.20
2017-09-17T05:28:16.953Z,100875.06
2017-09-17T05:30:51.848Z,100877.06
2017-09-17T05:33:26.802Z,100880.38
2017-09-17T05:36:01.517Z,100880.78
2017-09-17T05:38:36.982Z,100887.81
2017-09-17T05:41:12.623Z,100884.73
2017-09-17T05:43:47.873Z,100882.51
2017-09-17T05:46:22.798Z,100889.02
2017-09-17T05:48:57.952Z,100897.52
2017-09-17T05:51:32.476Z,100893.44
2017-09-17T05:54:07.267Z,100891.33
2017-09-17T05:56:42.198Z,100886.86
2017-09-17T05:59:18.004Z,100896.06
2017-09-17T06:01:52.802Z,100887.78
2017-09-17T06:04:27.901Z,100893.70
2017-09-17T06:07:02.719Z,100892.80
2017-09-17T06:09:37.778Z,100898.38
2017-09-17T06:12:12.951Z,100899.67
2017-09-17T06:14:47.648Z,100902.73
2017-09-17T06:17:22.827Z,100900.38
2017-09-17T06:19:57.721Z,100898.84
2017-09-17T06:22:32.759Z,100899.73
2017-09-17T06:25:07.726Z,100902.02
2017-09-17T06:27:42.414Z,100907.85
2017-09-17T06:30:17.568Z,100907.05
2017-09-17T06:32:52.508Z,100907.27
2017-09-17T06:35:27.351Z,100906.56
2017-09-17T06:38:02.446Z,100906.31
2017-09-17T06:40:37.109Z,100907.89
2017-09-17T06:43:12.244Z,100898.16
2017-09-17T06:45:47.017Z,100903.91
2017-09-17T06:48:21.855Z,100910.41
2017-09-17T06:50:56.677Z,100913.73
2017-09-17T06:53:31.885Z,100906.89
2017-09-17T06:56:06.558Z,100909.84
2017-09-17T06:58:41.555Z,100911.90
2017-09-17T07:01:16.692Z,100907.46
2017-09-17T07:03:51.563Z,100916.12
2017-09-17T07:06:26.514Z,100913.06
2017-09-17T07:09:01.214Z,100916.20
2017-09-17T07:11:36.144Z,100922.27
2017-09-17T07:14:10.956Z,100915.47
2017-09-17T07:16:45.779Z,100926.65
2017-09-17T07:19:20.867Z,100930.22
2017-09-17T07:21:55.378Z,100928.69
2017-09-17T07:24:30.293Z,100927.19
2017-09-17T07:27:05.089Z,100926.57
2017-09-17T07:29:39.786Z,100925.91
2017-09-17T07:32:14.659Z,100919.87
2017-09-17T07:34:49.552Z,100927.02
2017-09-17T07:37:24.523Z,100927.81
2017-09-17T07:39:59.555Z,100929.03
2017-09-17T07:42:34.087Z,100930.56
2017-09-17T07:45:08.881Z,100939.02
2017-09-17T07:47:44.087Z,100936.84
2017-09-17T07:50:40.282Z,100938.22
2017-09-17T07:53:14.838Z,100945.46
2017-09-17T07:55:49.813Z,100942.20
2017-09-17T07:58:24.951Z,100940.50
2017-09-17T08:00:59.752Z,100939.63
2017-09-17T08:03:34.340Z,100936.52
2017-09-17T08:06:09.294Z,100934.99
2017-09-17T08:08:43.983Z,100937.77
2017-09-17T08:11:18.593Z,100934.98
2017-09-17T08:13:53.532Z,100938.11
2017-09-17T08:16:28.383Z,100939.56
2017-09-17T08:19:02.990Z,100934.02
2017-09-17T08:21:38.263Z,100940.22
2017-09-17T08:24:13.188Z,100935.70
2017-09-17T08:26:47.980Z,100932.78
2017-09-17T08:29:22.728Z,100927.38
2017-09-17T08:31:57.781Z,100931.21
2017-09-17T08:34:32.478Z,100918.66
2017-09-17T08:37:07.319Z,100925.88
2017-09-17T08:39:42.327Z,100915.84
2017-09-17T08:42:16.995Z,100915.59
2017-09-17T08:44:51.824Z,100918.08
2017-09-17T08:47:26.835Z,100916.14
2017-09-17T08:50:01.671Z,100913.34
2017-09-17T08:52:36.881Z,100909.58
2017-09-17T08:55:11.455Z,100914.29
2017-09-17T08:57:46.487Z,100910.70
2017-09-17T09:00:20.784Z,100912.17
2017-09-17T09:02:55.871Z,100914.06
2017-09-17T09:05:30.783Z,100903.67
2017-09-17T09:08:05.588Z,100915.73
2017-09-17T09:10:40.267Z,100912.30
2017-09-17T09:13:15.264Z,100912.74
2017-09-17T09:15:50.261Z,100902.89
2017-09-17T09:18:25.138Z,100903.62
2017-09-17T09:20:59.832Z,100902.66
2017-09-17T09:23:34.548Z,100901.89
2017-09-17T09:26:09.364Z,100902.00
2017-09-17T09:28:44.283Z,100906.47
2017-09-17T09:31:19.276Z,100900.48
2017-09-17T09:33:53.911Z,100908.34
2017-09-17T09:36:28.533Z,100902.23
2017-09-17T09:39:03.227Z,100902.81
2017-09-17T09:41:38.084Z,100903.27
2017-09-17T09:44:13.119Z,100904.67
2017-09-17T09:46:47.839Z,100905.20
2017-09-17T09:49:22.575Z,100895.46
2017-09-17T09:51:57.421Z,100905.70
2017-09-17T09:54:31.866Z,100898.72
2017-09-17T09:57:07.051Z,100906.38
2017-09-17T09:59:41.865Z,100906.68
2017-09-17T10:02:16.733Z,100899.19
2017-09-17T10:04:51.663Z,100901.02
2017-09-17T10:07:26.476Z,100894.86
2017-09-17T10:10:01.547Z,100897.19
2017-09-17T10:12:36.280Z,100899.95
2017-09-17T10:15:10.761Z,100894.25
2017-09-17T10:17:46.128Z,100893.92
2017-09-17T10:20:20.779Z,100895.97
2017-09-17T10:22:55.672Z,100894.87
2017-09-17T10:25:30.560Z,100893.88
2017-09-17T10:28:05.443Z,100886.50
2017-09-17T10:30:40.286Z,100885.95
2017-09-17T10:33:14.929Z,100882.23
2017-09-17T10:35:49.771Z,100881.48
2017-09-17T10:38:24.693Z,100878.84
2017-09-17T10:40:59.484Z,100876.78
2017-09-17T10:43:34.082Z,100876.35
2017-09-17T10:46:08.895Z,100880.27
2017-09-17T10:48:43.418Z,100879.91
2017-09-17T10:51:17.852Z,100874.09
2017-09-17T10:53:52.756Z,100874.14
2017-09-17T10:56:27.636Z,100876.66
2017-09-17T10:59:02.564Z,100863.98
2017-09-17T11:01:37.489Z,100859.44
2017-09-17T11:04:12.179Z,100858.53
2017-09-17T11:06:47.019Z,100859.77
2017-09-17T11:09:22.051Z,100848.79
2017-09-17T11:11:56.831Z,100857.23
2017-09-17T11:14:31.535Z,100851.20
2017-09-17T11:17:06.067Z,100849.73
2017-09-17T11:19:40.771Z,100843.37
2017-09-17T11:22:16.204Z,100846.80
2017-09-17T11:24:50.998Z,100847.42
2017-09-17T11:27:27.362Z,100840.87
2017-09-17T11:30:02.666Z,100833.39
2017-09-17T11:32:38.232Z,100829.59
2017-09-17T11:35:12.812Z,100832.84
2017-09-17T11:37:47.611Z,100829.06
2017-09-17T11:40:22.381Z,100825.89
2017-09-17T11:42:57.310Z,100824.84
2017-09-17T11:45:32.028Z,100824.19
2017-09-17T11:48:06.856Z,100824.89
2017-09-17T11:50:41.802Z,100826.44
2017-09-17T11:53:16.353Z,100823.61
2017-09-17T11:55:51.279Z,100821.08
2017-09-17T11:58:25.975Z,100815.02
2017-09-17T12:01:00.556Z,100813.14
2017-09-17T12:03:35.257Z,100817.45
2017-09-17T12:06:10.126Z,100812.17
2017-09-17T12:08:44.675Z,100804.02
2017-09-17T12:11:19.339Z,100811.66
2017-09-17T12:13:54.343Z,100801.16
2017-09-17T12:16:29.363Z,100803.20
2017-09-17T12:19:04.147Z,100804.67
2017-09-17T12:21:39.063Z,100797.34
2017-09-17T12:24:13.784Z,100795.46
2017-09-17T12:26:48.489Z,100794.30
2017-09-17T12:29:23.220Z,100787.59
2017-09-17T12:31:58.323Z,100792.76
2017-09-17T12:34:33.031Z,100787.62
2017-09-17T12:37:07.804Z,100787.88
2017-09-17T12:39:42.801Z,100790.23
2017-09-17T12:42:17.609Z,100786.44
2017-09-17T12:44:52.331Z,100779.95
2017-09-17T12:47:27.207Z,100781.89
2017-09-17T12:50:02.843Z,100780.11
2017-09-17T12:52:37.828Z,100776.95
2017-09-17T12:55:12.623Z,100780.19
2017-09-17T12:57:47.422Z,100776.99
2017-09-17T13:00:22.171Z,100776.09
2017-09-17T13:02:56.723Z,100775.20
2017-09-17T13:05:31.639Z,100775.84
2017-09-17T13:08:06.135Z,100765.81
2017-09-17T13:10:41.395Z,100764.86
2017-09-17T13:13:16.107Z,100766.81
2017-09-17T13:15:50.848Z,100766.41
2017-09-17T13:18:25.783Z,100759.20
2017-09-17T13:21:00.274Z,100755.86
2017-09-17T13:23:35.234Z,100754.94
2017-09-17T13:26:09.904Z,100759.11
2017-09-17T13:28:44.845Z,100752.58
2017-09-17T13:31:19.829Z,100758.13
2017-09-17T13:33:54.548Z,100757.89
2017-09-17T13:36:30.669Z,100760.84
2017-09-17T13:39:05.862Z,100750.31
2017-09-17T13:41:41.187Z,100756.33
2017-09-17T13:44:15.504Z,100750.55
2017-09-17T13:46:50.115Z,100756.03
2017-09-17T13:49:24.943Z,100756.55
2017-09-17T13:51:59.698Z,100757.79
2017-09-17T13:54:34.132Z,100751.06
2017-09-17T13:57:08.905Z,100749.20
2017-09-17T14:00:04.392Z,100747.28
2017-09-17T14:02:49.771Z,100743.33
2017-09-17T14:05:29.856Z,100744.88
2017-09-17T14:08:06.260Z,100739.02
2017-09-17T14:10:42.287Z,100742.95
2017-09-17T14:13:16.644Z,100741.91
2017-09-17T14:15:51.839Z,100743.69
2017-09-17T14:18:26.039Z,100742.17
2017-09-17T14:21:00.772Z,100737.81
2017-09-17T14:23:35.287Z,100744.22
2017-09-17T14:26:09.916Z,100742.79
2017-09-17T14:28:44.709Z,100741.22
2017-09-17T14:31:19.542Z,100740.74
2017-09-17T14:33:54.569Z,100738.00
2017-09-17T14:36:29.413Z,100736.86
2017-09-17T14:39:03.403Z,100740.28
2017-09-17T14:41:38.011Z,100735.36
2017-09-17T14:44:12.721Z,100736.11
2017-09-17T14:46:47.261Z,100740.19
2017-09-17T14:49:21.861Z,100739.59
2017-09-17T14:51:56.613Z,100732.68
2017-09-17T14:54:31.261Z,100732.75
2017-09-17T14:57:06.112Z,100729.53
2017-09-17T14:59:41.217Z,100736.91
2017-09-17T15:02:15.996Z,100740.73
2017-09-17T15:04:50.631Z,100751.88
2017-09-17T15:07:25.186Z,100753.24
2017-09-17T15:09:59.854Z,100748.39
2017-09-17T15:12:34.659Z,100756.20
2017-09-17T15:15:09.711Z,100758.66
2017-09-17T15:17:44.435Z,100761.55
2017-09-17T15:20:19.199Z,100749.34
2017-09-17T15:22:54.048Z,100750.28
2017-09-17T15:25:28.774Z,100749.32
2017-09-17T15:28:03.734Z,100751.20
2017-09-17T15:30:38.664Z,100751.31
2017-09-17T15:33:13.169Z,100748.52
2017-09-17T15:35:47.754Z,100745.41
2017-09-17T15:38:22.513Z,100755.66
2017-09-17T15:40:57.322Z,100754.06
2017-09-17T15:43:31.939Z,100750.44
2017-09-17T15:46:06.651Z,100758.91
2017-09-17T15:48:41.598Z,100751.63
2017-09-17T15:51:16.679Z,100760.07
2017-09-17T15:53:51.091Z,100757.17
2017-09-17T15:56:25.878Z,100756.13
2017-09-17T15:59:01.666Z,100754.13
2017-09-17T16:01:37.419Z,100750.75
2017-09-17T16:04:11.848Z,100752.58
2017-09-17T16:06:46.787Z,100760.33
2017-09-17T16:09:21.523Z,100755.86
2017-09-17T16:11:56.132Z,100764.47
2017-09-17T16:14:31.065Z,100766.20
2017-09-17T16:17:05.866Z,100776.27
2017-09-17T16:19:41.472Z,100777.55
2017-09-17T16:22:16.171Z,100780.77
2017-09-17T16:24:51.161Z,100783.19
2017-09-17T16:27:25.687Z,100789.91
2017-09-17T16:30:00.676Z,100793.08
2017-09-17T16:48:19.849Z,100799.00
2017-09-17T16:50:54.549Z,100803.47
2017-09-17T16:53:30.139Z,100799.50
2017-09-17T16:56:05.059Z,100802.66
2017-09-17T16:58:40.454Z,100802.00
2017-09-17T17:01:15.158Z,100799.87
2017-09-17T17:03:49.474Z,100805.59
2017-09-17T17:06:24.265Z,100810.14
2017-09-17T17:08:59.069Z,100815.41
2017-09-17T17:11:33.623Z,100811.19
2017-09-17T17:14:08.200Z,100813.95
2017-09-17T17:16:43.082Z,100811.98
2017-09-17T17:19:17.598Z,100819.01
2017-09-17T17:21:52.148Z,100823.06
2017-09-17T17:24:26.763Z,100817.58
2017-09-17T17:27:01.239Z,100820.16
2017-09-17T17:29:35.800Z,100811.66
2017-09-17T17:32:10.537Z,100811.02
2017-09-17T17:34:45.272Z,100809.80
2017-09-17T17:37:19.856Z,100825.50
2017-09-17T17:39:54.360Z,100829.73
2017-09-17T17:42:29.083Z,100825.39
2017-09-17T17:45:03.415Z,100836.23
2017-09-17T17:47:38.907Z,100837.43
2017-09-17T17:50:14.472Z,100833.59
2017-09-17T17:52:49.376Z,100836.13
2017-09-17T17:55:24.075Z,100830.71
2017-09-17T17:57:59.627Z,100841.57
2017-09-17T18:00:34.399Z,100843.22
2017-09-17T18:03:08.935Z,100841.75
2017-09-17T18:05:43.847Z,100842.52
2017-09-17T18:08:18.878Z,100852.94
2017-09-17T18:10:53.620Z,100856.23
2017-09-17T18:13:28.446Z,100853.34
2017-09-17T18:16:03.202Z,100854.98
2017-09-17T18:18:41.468Z,100860.25
2017-09-17T19:43:20.490Z,100874.88
2017-09-17T19:45:55.277Z,100874.07
2017-09-17T19:48:29.712Z,100873.16
2017-09-17T19:51:04.499Z,100874.89
2017-09-17T19:53:39.309Z,100879.17
2017-09-17T19:56:14.040Z,100887.95
2017-09-17T19:58:48.661Z,100893.67
2017-09-17T20:01:23.352Z,100896.41
2017-09-17T20:03:58.079Z,100898.43
2017-09-17T20:06:32.644Z,100903.98
2017-09-17T20:09:07.596Z,100894.63
2017-09-17T20:11:42.384Z,100891.56
2017-09-17T20:14:17.178Z,100890.37
2017-09-17T20:16:52.075Z,100898.64
2017-09-17T20:19:26.826Z,100900.42
2017-09-17T20:22:01.412Z,100901.23
2017-09-17T20:24:36.248Z,100896.08
2017-09-17T20:27:11.147Z,100900.59
2017-09-17T20:29:46.290Z,100895.80
2017-09-17T20:32:21.484Z,100890.09
2017-09-17T20:34:56.485Z,100893.38
2017-09-17T20:37:31.801Z,100897.92
2017-09-17T20:40:06.920Z,100898.47
2017-09-17T20:42:41.876Z,100902.15
2017-09-17T20:45:16.634Z,100895.77
2017-09-17T20:47:51.522Z,100894.89
2017-09-17T20:50:26.566Z,100897.16
2017-09-17T20:53:01.464Z,100897.45
2017-09-17T20:55:36.254Z,100891.05
2017-09-17T20:58:11.008Z,100892.16
2017-09-17T21:00:45.971Z,100898.29
2017-09-17T21:03:20.759Z,100889.23
2017-09-17T21:05:55.756Z,100896.14
2017-09-17T21:08:30.461Z,100894.91
2017-09-17T21:11:05.445Z,100891.59
2017-09-17T21:13:40.393Z,100891.41
2017-09-17T21:16:15.395Z,100894.77
2017-09-17T21:18:50.320Z,100891.63
2017-09-17T21:21:25.236Z,100884.14
2017-09-17T21:24:00.128Z,100884.41
2017-09-17T21:26:35.204Z,100885.09
2017-09-17T21:29:09.810Z,100887.05
2017-09-17T21:31:45.323Z,100888.76
2017-09-17T21:34:19.945Z,100890.92
2017-09-17T21:36:54.802Z,100881.00
2017-09-17T21:39:29.499Z,100874.87
2017-09-17T21:42:04.816Z,100881.77
2017-09-17T21:44:39.261Z,100888.63
2017-09-17T21:47:13.657Z,100893.86
2017-09-17T21:49:48.083Z,100885.69
2017-09-17T21:52:22.894Z,100891.80
2017-09-17T21:54:57.792Z,100889.58
2017-09-17T21:57:32.535Z,100891.58
2017-09-17T22:00:07.761Z,100897.63
2017-09-17T22:02:42.385Z,100891.73
2017-09-17T22:05:17.069Z,100897.34
2017-09-17T22:07:52.066Z,100894.14
2017-09-17T22:10:27.184Z,100893.51
2017-09-17T22:13:02.591Z,100897.95
2017-09-17T22:15:37.195Z,100894.31
2017-09-17T22:18:11.839Z,100894.48
2017-09-17T22:20:47.024Z,100888.34
2017-09-17T22:23:22.786Z,100884.49
2017-09-17T22:25:57.716Z,100885.46
2017-09-17T22:28:32.520Z,100887.90
2017-09-17T22:31:08.062Z,100885.10
2017-09-17T22:33:42.465Z,100882.79
2017-09-17T22:36:17.515Z,100881.69
2017-09-17T22:38:52.412Z,100883.77
2017-09-17T22:41:27.332Z,100889.46
2017-09-17T22:44:11.428Z,100885.72
2017-09-17T22:46:45.928Z,100879.73
2017-09-17T22:49:20.859Z,100884.08
2017-09-17T22:51:56.048Z,100879.38
2017-09-17T22:54:30.466Z,100881.25
2017-09-17T22:57:05.453Z,100881.63
2017-09-17T22:59:39.859Z,100883.17
2017-09-17T23:02:14.847Z,100887.14
2017-09-17T23:04:49.737Z,100879.02
2017-09-17T23:07:24.834Z,100879.70
2017-09-17T23:09:59.607Z,100882.06
2017-09-17T23:12:34.295Z,100880.42
2017-09-17T23:15:09.235Z,100881.58
2017-09-17T23:17:43.815Z,100878.95
2017-09-17T23:20:18.811Z,100882.72
2017-09-17T23:22:53.670Z,100884.45
2017-09-17T23:25:28.578Z,100883.64
2017-09-17T23:28:03.479Z,100876.91
2017-09-17T23:30:38.388Z,100879.16
2017-09-17T23:33:13.416Z,100877.73
2017-09-17T23:35:48.336Z,100872.35
2017-09-17T23:38:23.019Z,100872.19
2017-09-17T23:40:57.739Z,100875.25
2017-09-17T23:43:32.680Z,100869.69
2017-09-17T23:46:07.496Z,100867.94
2017-09-17T23:48:42.287Z,100861.59
2017-09-17T23:51:16.835Z,100864.37
2017-09-17T23:53:51.092Z,100865.66
2017-09-17T23:56:26.084Z,100857.83
2017-09-17T23:59:01.279Z,100865.41
